Time;durP1;ratioP1;P1;durP2;ratioP2;P2;SDS_P1;SDS_P2;PMS_P1;PMS_P2;Temp;Humidity;BMP_temperature;BMP_pressure;BME280_temperature;BME280_humidity;BME280_pressure;Samples;Min_cycle;Max_cycle;Signal;HPM_P1;HPM_P2
2023/12/10 00:00:58;;;;;;;36.35;7.20;;;;;;;8.26;97.83;99836.03;5063388;28;20020;-80
2023/12/10 00:03:24;;;;;;;38.45;6.90;;;;;;;8.25;98.34;99847.50;5071596;28;20036;-80
2023/12/10 00:05:50;;;;;;;23.25;5.55;;;;;;;8.27;97.99;99833.38;5071606;28;20033;-81
2023/12/10 00:08:15;;;;;;;23.98;5.30;;;;;;;8.21;98.80;99844.09;5071638;28;20098;-81
2023/12/10 00:10:41;;;;;;;29.73;5.07;;;;;;;8.26;97.91;99843.94;5071721;28;20044;-80
2023/12/10 00:13:06;;;;;;;29.02;5.75;;;;;;;8.33;97.14;99837.59;5057296;28;20056;-81
2023/12/10 00:15:32;;;;;;;30.55;6.47;;;;;;;8.35;97.35;99847.19;5070500;28;20048;-80
2023/12/10 00:17:57;;;;;;;36.63;6.20;;;;;;;8.28;97.91;99844.78;5053735;28;20080;-80
2023/12/10 00:20:25;;;;;;;23.52;5.90;;;;;;;8.44;96.61;99848.75;5071939;28;20063;-80
2023/12/10 00:22:50;;;;;;;39.35;6.22;;;;;;;8.32;97.32;99852.56;5070257;28;20040;-80
2023/12/10 00:25:16;;;;;;;34.40;7.10;;;;;;;8.34;96.80;99857.81;5053746;28;20682;-81
2023/12/10 00:27:42;;;;;;;37.17;6.55;;;;;;;8.30;97.92;99872.84;5071353;28;20056;-81
2023/12/10 00:30:08;;;;;;;30.00;5.97;;;;;;;8.37;96.23;99860.34;5070331;28;20033;-80
2023/12/10 00:32:34;;;;;;;35.40;7.18;;;;;;;8.54;94.77;99865.19;5036660;28;20041;-81
2023/12/10 00:34:59;;;;;;;24.55;5.47;;;;;;;8.51;95.46;99866.13;5071551;28;20093;-80
2023/12/10 00:37:25;;;;;;;27.33;5.25;;;;;;;8.50;95.45;99856.47;5042391;28;20392;-79
2023/12/10 00:39:50;;;;;;;32.30;5.10;;;;;;;8.46;96.12;99870.69;5071444;28;20112;-79
2023/12/10 00:42:16;;;;;;;30.33;6.57;;;;;;;8.45;95.77;99862.78;5071128;28;20322;-79
2023/12/10 00:44:42;;;;;;;33.33;6.65;;;;;;;8.61;95.23;99864.09;5066575;28;20421;-80
2023/12/10 00:47:08;;;;;;;35.70;5.95;;;;;;;8.39;95.90;99848.88;5053221;28;20055;-80
2023/12/10 00:49:33;;;;;;;32.33;5.13;;;;;;;8.30;97.50;99875.47;5070231;28;21613;-80
2023/12/10 00:51:59;;;;;;;21.20;4.82;;;;;;;8.53;95.94;99871.34;5068800;28;20154;-80
2023/12/10 00:54:25;;;;;;;20.30;5.05;;;;;;;8.38;95.52;99876.16;5069670;28;20441;-80
2023/12/10 00:56:50;;;;;;;30.42;6.00;;;;;;;8.39;97.05;99896.38;5069743;28;20087;-80
2023/12/10 00:59:16;;;;;;;19.60;5.43;;;;;;;8.35;97.02;99892.03;5069752;28;20585;-80
2023/12/10 01:01:41;;;;;;;26.10;4.10;;;;;;;8.39;96.21;99900.75;5070866;28;20041;-80
2023/12/10 01:04:07;;;;;;;20.60;4.63;;;;;;;8.42;96.20;99898.06;5050622;28;20040;-80
2023/12/10 01:06:33;;;;;;;24.92;5.28;;;;;;;8.24;97.81;99906.44;5049327;28;20129;-80
2023/12/10 01:08:58;;;;;;;29.98;5.78;;;;;;;8.13;99.00;99907.59;5069946;28;20069;-81
2023/12/10 01:11:24;;;;;;;34.13;5.95;;;;;;;8.15;98.54;99891.72;5069478;28;20093;-82
2023/12/10 01:13:49;;;;;;;26.88;4.78;;;;;;;8.08;99.23;99909.47;5052283;28;20066;-80
2023/12/10 01:16:16;;;;;;;25.98;5.47;;;;;;;8.29;97.20;99896.63;5073825;28;20056;-83
2023/12/10 01:18:43;;;;;;;28.77;5.15;;;;;;;8.10;98.78;99889.22;5073018;28;20197;-80
2023/12/10 01:21:09;;;;;;;21.15;5.57;;;;;;;8.13;97.89;99901.44;5057050;28;20119;-79
2023/12/10 01:23:36;;;;;;;26.75;5.03;;;;;;;8.05;99.00;99900.78;5073448;28;20119;-81
2023/12/10 01:26:03;;;;;;;32.10;5.80;;;;;;;8.22;97.97;99902.97;5074813;28;20044;-84
2023/12/10 01:28:28;;;;;;;28.65;4.78;;;;;;;8.06;99.29;99907.78;5056702;28;20395;-81
2023/12/10 01:30:54;;;;;;;34.58;5.65;;;;;;;8.11;98.67;99912.06;5055800;28;20027;-81
2023/12/10 01:33:19;;;;;;;27.42;5.50;;;;;;;7.97;100.00;99916.81;5063568;28;20408;-81
2023/12/10 01:35:45;;;;;;;28.95;5.45;;;;;;;8.01;100.00;99922.88;5071716;28;20168;-84
2023/12/10 01:38:11;;;;;;;28.38;6.38;;;;;;;7.94;100.00;99917.75;5073187;28;20029;-80
2023/12/10 01:40:36;;;;;;;26.95;5.40;;;;;;;8.02;100.00;99953.63;5056418;28;20036;-81
2023/12/10 01:43:06;;;;;;;26.63;5.10;;;;;;;7.99;100.00;99957.19;5073367;28;20028;-83
2023/12/10 01:45:31;;;;;;;23.02;4.80;;;;;;;8.00;100.00;99943.09;5070463;28;20036;-82
2023/12/10 01:47:58;;;;;;;27.83;5.68;;;;;;;7.92;100.00;99948.56;5056152;28;20077;-81
2023/12/10 01:50:24;;;;;;;16.02;4.55;;;;;;;7.79;100.00;99941.88;5072906;28;20050;-80
2023/12/10 01:52:49;;;;;;;30.67;5.72;;;;;;;7.71;100.00;99942.03;5070045;28;20036;-81
2023/12/10 01:55:15;;;;;;;26.58;5.72;;;;;;;7.68;100.00;99954.44;5036269;28;20037;-84
2023/12/10 01:57:41;;;;;;;34.60;5.25;;;;;;;7.70;100.00;99963.19;5052774;28;20520;-81
2023/12/10 02:00:07;;;;;;;24.50;5.45;;;;;;;7.68;100.00;99957.06;5065628;28;20472;-81
2023/12/10 02:02:39;;;;;;;28.13;5.00;;;;;;;7.60;100.00;99949.38;5067929;28;20127;-80
2023/12/10 02:05:07;;;;;;;21.67;4.88;;;;;;;7.66;100.00;99949.19;5049046;28;20032;-80
2023/12/10 02:07:34;;;;;;;25.00;4.82;;;;;;;7.58;100.00;99947.66;5064988;28;20068;-83
2023/12/10 02:09:59;;;;;;;23.15;4.80;;;;;;;7.70;100.00;99931.56;5067818;28;20095;-82
2023/12/10 02:12:27;;;;;;;22.20;4.78;;;;;;;7.52;100.00;99949.53;5062403;28;20399;-79
2023/12/10 02:14:53;;;;;;;26.08;4.28;;;;;;;7.51;100.00;99957.47;5070247;28;20048;-80
2023/12/10 02:17:19;;;;;;;16.20;4.30;;;;;;;7.43;100.00;99962.06;5072321;28;20041;-80
2023/12/10 02:19:45;;;;;;;23.92;4.55;;;;;;;7.47;100.00;99956.69;5073594;28;20471;-81
2023/12/10 02:22:13;;;;;;;28.33;5.43;;;;;;;7.36;100.00;99961.31;5071931;28;20112;-81
2023/12/10 02:25:03;;;;;;;22.65;4.60;;;;;;;7.38;100.00;99964.81;5052098;28;20040;-80
2023/12/10 02:27:31;;;;;;;27.10;5.03;;;;;;;7.49;100.00;99981.25;5062149;28;20044;-80
2023/12/10 02:29:57;;;;;;;21.48;4.60;;;;;;;7.40;100.00;99977.94;5055550;28;20115;-79
2023/12/10 02:32:22;;;;;;;24.58;4.85;;;;;;;7.48;100.00;99973.34;5051103;28;20178;-84
2023/12/10 02:34:48;;;;;;;23.15;4.10;;;;;;;7.38;100.00;99983.25;5051276;28;20127;-85
2023/12/10 02:37:14;;;;;;;23.33;4.93;;;;;;;7.36;100.00;99977.13;5070824;28;20086;-80
2023/12/10 02:39:40;;;;;;;26.30;4.75;;;;;;;7.39;100.00;99973.56;5072366;28;20031;-81
2023/12/10 02:42:06;;;;;;;26.77;5.65;;;;;;;7.38;100.00;99983.25;5045630;28;20045;-80
2023/12/10 02:44:32;;;;;;;26.30;5.57;;;;;;;7.46;100.00;99981.28;5071973;28;20037;-84
2023/12/10 02:46:57;;;;;;;19.38;4.30;;;;;;;7.48;100.00;99989.16;5073170;28;20044;-82
2023/12/10 02:49:23;;;;;;;25.48;4.85;;;;;;;7.54;100.00;99991.66;5059102;28;20037;-82
2023/12/10 02:51:48;;;;;;;22.00;4.47;;;;;;;7.46;100.00;99989.19;5071285;28;20099;-80
2023/12/10 02:54:14;;;;;;;20.77;3.85;;;;;;;7.58;100.00;99984.56;5071622;28;20044;-80
2023/12/10 02:56:39;;;;;;;33.47;5.13;;;;;;;7.56;100.00;100002.16;5063894;28;20037;-81
2023/12/10 02:59:05;;;;;;;19.83;3.97;;;;;;;7.61;99.81;100000.28;5055238;28;20036;-83
2023/12/10 03:01:30;;;;;;;28.17;5.80;;;;;;;7.66;98.83;100022.13;5064300;28;20041;-81
2023/12/10 03:03:56;;;;;;;29.55;5.55;;;;;;;7.64;99.08;99987.91;5071340;28;20033;-80
2023/12/10 03:06:21;;;;;;;26.42;5.18;;;;;;;7.67;99.02;99995.75;5054981;28;20065;-81
2023/12/10 03:08:47;;;;;;;29.40;5.53;;;;;;;7.60;99.68;100004.69;5072533;28;20028;-80
2023/12/10 03:11:12;;;;;;;18.75;4.22;;;;;;;7.69;100.00;99993.94;5068558;28;20406;-82
2023/12/10 03:13:38;;;;;;;25.05;5.60;;;;;;;7.73;97.77;100006.13;5065230;28;20036;-82
2023/12/10 03:16:04;;;;;;;23.33;4.22;;;;;;;7.58;99.12;99987.19;5063454;28;20033;-81
2023/12/10 03:18:32;;;;;;;26.02;4.15;;;;;;;7.65;97.54;100015.13;5072320;28;20049;-81
2023/12/10 03:21:01;;;;;;;21.10;3.92;;;;;;;7.74;96.98;100023.69;5072529;28;20047;-80
2023/12/10 03:23:26;;;;;;;22.73;4.45;;;;;;;7.91;95.04;100012.75;5069040;28;20242;-81
2023/12/10 03:25:52;;;;;;;23.83;4.93;;;;;;;7.93;94.71;99994.25;5061887;28;20433;-81
2023/12/10 03:28:17;;;;;;;22.83;4.53;;;;;;;8.01;93.21;100026.59;5071305;28;20036;-82
2023/12/10 03:30:43;;;;;;;19.40;4.10;;;;;;;7.97;92.46;100011.72;5055110;28;20048;-84
2023/12/10 03:33:08;;;;;;;21.27;4.10;;;;;;;8.01;92.42;100017.78;5067461;28;20032;-81
2023/12/10 03:35:34;;;;;;;27.73;5.20;;;;;;;8.04;92.27;100041.47;5071397;28;20076;-85
2023/12/10 03:37:59;;;;;;;24.55;4.53;;;;;;;7.99;92.42;100041.56;5050962;28;20039;-82
2023/12/10 03:40:25;;;;;;;25.83;5.85;;;;;;;8.08;91.50;100022.00;5066025;28;20376;-82
2023/12/10 03:42:51;;;;;;;19.83;5.13;;;;;;;8.03;92.54;100022.13;5034141;28;20041;-80
2023/12/10 03:45:16;;;;;;;19.05;4.57;;;;;;;8.02;91.50;100027.44;5070481;28;20017;-82
2023/12/10 03:47:46;;;;;;;28.92;5.43;;;;;;;8.02;91.63;100041.50;5071947;28;20074;-81
2023/12/10 03:50:13;;;;;;;23.40;5.33;;;;;;;8.06;91.04;100042.25;5072283;28;20047;-80
2023/12/10 03:52:38;;;;;;;31.42;4.70;;;;;;;8.08;91.72;100049.22;5069472;28;20041;-81
2023/12/10 03:55:05;;;;;;;26.77;5.25;;;;;;;8.17;90.78;100041.09;5070248;28;20032;-81
2023/12/10 03:57:30;;;;;;;24.92;4.55;;;;;;;8.04;91.47;100052.88;5070362;28;20036;-81
2023/12/10 03:59:56;;;;;;;18.90;4.00;;;;;;;8.09;89.40;100060.69;5053702;28;20033;-81
2023/12/10 04:02:21;;;;;;;23.30;4.22;;;;;;;8.07;89.52;100051.94;5052813;28;20206;-81
2023/12/10 04:04:47;;;;;;;24.05;4.88;;;;;;;8.16;89.14;100062.25;5071439;28;20515;-82
2023/12/10 04:07:13;;;;;;;21.75;4.50;;;;;;;8.19;88.15;100039.31;5070548;28;20249;-80
2023/12/10 04:09:38;;;;;;;32.42;5.68;;;;;;;8.17;87.91;100080.66;5037029;28;20028;-81
2023/12/10 04:12:07;;;;;;;18.38;3.70;;;;;;;8.23;87.44;100058.53;5071736;28;20115;-81
2023/12/10 04:14:32;;;;;;;17.55;4.07;;;;;;;8.24;87.52;100078.75;5054080;28;20396;-82
2023/12/10 04:16:58;;;;;;;30.10;5.15;;;;;;;8.29;88.60;100066.31;5053760;28;20078;-81
2023/12/10 04:19:23;;;;;;;24.20;4.15;;;;;;;8.42;85.96;100089.78;5069686;28;20128;-82
2023/12/10 04:21:49;;;;;;;15.65;3.78;;;;;;;8.32;86.81;100078.56;5066043;28;20063;-82
2023/12/10 04:24:15;;;;;;;25.25;4.30;;;;;;;8.24;87.01;100120.09;5070412;28;20017;-82
2023/12/10 04:26:41;;;;;;;22.90;4.82;;;;;;;8.33;86.66;100068.00;5069666;28;20090;-81
2023/12/10 04:29:06;;;;;;;23.20;4.35;;;;;;;8.31;85.73;100090.91;5070341;28;20425;-81
2023/12/10 04:31:32;;;;;;;19.30;4.03;;;;;;;8.32;86.45;100110.22;5019508;28;20044;-81
2023/12/10 04:33:58;;;;;;;16.98;4.03;;;;;;;8.30;86.06;100106.75;5070172;28;20049;-82
2023/12/10 04:36:23;;;;;;;24.63;4.47;;;;;;;8.43;84.25;100126.66;5071574;28;20029;-81
2023/12/10 04:38:49;;;;;;;18.52;4.15;;;;;;;8.39;84.79;100111.81;5067477;28;20120;-81
2023/12/10 04:41:14;;;;;;;20.77;4.10;;;;;;;8.51;84.04;100115.94;5045251;28;20082;-82
2023/12/10 04:43:40;;;;;;;26.20;5.15;;;;;;;8.34;85.39;100129.53;5053208;28;20516;-82
2023/12/10 04:46:05;;;;;;;17.35;4.90;;;;;;;8.38;84.84;100139.06;5069559;28;20068;-81
2023/12/10 04:48:31;;;;;;;26.90;5.70;;;;;;;8.45;83.89;100119.59;5073983;28;20074;-81
2023/12/10 04:50:57;;;;;;;23.17;4.30;;;;;;;8.46;84.17;100120.47;5055494;28;20427;-81
2023/12/10 04:53:22;;;;;;;18.00;4.72;;;;;;;8.55;83.83;100128.16;5073771;28;20032;-81
2023/12/10 04:55:48;;;;;;;19.33;4.03;;;;;;;8.56;83.27;100151.88;5073031;28;20391;-81
2023/12/10 04:58:13;;;;;;;17.50;4.03;;;;;;;8.46;83.79;100152.16;5064331;28;20498;-81
2023/12/10 05:00:39;;;;;;;24.35;4.78;;;;;;;8.47;84.44;100141.53;5057065;28;20074;-82
2023/12/10 05:03:04;;;;;;;19.92;5.53;;;;;;;8.53;83.90;100164.25;5073545;28;20052;-81
2023/12/10 05:05:30;;;;;;;27.45;5.28;;;;;;;8.50;83.30;100159.91;5066799;28;20115;-82
2023/12/10 05:07:56;;;;;;;16.98;3.95;;;;;;;8.47;83.43;100173.19;5053513;28;20037;-82
2023/12/10 05:10:22;;;;;;;26.45;4.32;;;;;;;8.51;82.42;100155.53;5072949;28;20048;-81
2023/12/10 05:12:47;;;;;;;23.85;5.13;;;;;;;8.55;82.80;100176.50;5055639;28;20143;-81
2023/12/10 05:15:14;;;;;;;23.70;5.45;;;;;;;8.56;83.37;100186.19;5056837;28;20040;-82
2023/12/10 05:17:40;;;;;;;22.27;4.28;;;;;;;8.47;83.25;100191.66;5056900;28;20174;-82
2023/12/10 05:20:08;;;;;;;23.10;4.97;;;;;;;8.58;82.91;100201.97;5059435;28;20483;-82
2023/12/10 05:22:34;;;;;;;23.25;4.75;;;;;;;8.49;83.29;100191.66;5073507;28;20506;-82
2023/12/10 05:24:59;;;;;;;20.33;4.65;;;;;;;8.55;82.69;100187.06;5074386;28;20037;-82
2023/12/10 05:27:25;;;;;;;21.70;3.15;;;;;;;8.54;82.83;100187.97;5056764;28;20036;-82
2023/12/10 05:29:51;;;;;;;25.33;4.85;;;;;;;8.66;82.46;100196.53;5056772;28;20423;-82
2023/12/10 05:32:16;;;;;;;26.20;4.38;;;;;;;8.60;82.28;100198.41;5073231;28;20504;-82
2023/12/10 05:34:42;;;;;;;30.30;5.25;;;;;;;8.59;82.06;100217.78;5074533;28;20064;-82
2023/12/10 05:37:07;;;;;;;19.75;5.05;;;;;;;8.56;82.60;100227.53;5056601;28;20131;-82
2023/12/10 05:39:33;;;;;;;24.90;4.95;;;;;;;8.42;83.76;100206.75;5056823;28;20036;-82
2023/12/10 05:41:58;;;;;;;20.33;4.05;;;;;;;8.54;83.01;100224.06;5072944;28;20025;-82
2023/12/10 05:44:24;;;;;;;23.98;4.45;;;;;;;8.51;82.97;100230.28;5073316;28;20037;-83
2023/12/10 05:46:49;;;;;;;22.90;5.15;;;;;;;8.56;82.77;100225.75;5056474;28;20043;-83
2023/12/10 05:49:15;;;;;;;24.40;4.75;;;;;;;8.58;82.44;100216.06;5055729;28;20037;-82
2023/12/10 05:51:40;;;;;;;25.77;4.85;;;;;;;8.61;82.69;100244.13;5066098;28;20033;-82
2023/12/10 05:54:06;;;;;;;19.45;4.40;;;;;;;8.51;82.86;100213.59;5058510;28;20087;-82
2023/12/10 05:56:31;;;;;;;19.35;5.25;;;;;;;8.56;82.41;100244.25;5072523;28;20041;-81
2023/12/10 05:58:57;;;;;;;23.98;5.25;;;;;;;8.57;82.35;100253.88;5071852;28;20051;-81
2023/12/10 06:01:22;;;;;;;25.92;4.70;;;;;;;8.49;82.54;100247.06;5056188;28;20047;-82
2023/12/10 06:03:48;;;;;;;25.25;5.07;;;;;;;8.62;82.64;100272.25;5073831;28;20106;-80
2023/12/10 06:06:13;;;;;;;24.65;4.85;;;;;;;8.56;82.01;100270.63;5072697;28;20020;-81
2023/12/10 06:08:39;;;;;;;30.00;5.82;;;;;;;8.54;82.08;100290.03;5072365;28;20029;-81
2023/12/10 06:11:05;;;;;;;21.45;5.00;;;;;;;8.59;82.07;100280.25;5055911;28;20040;-81
2023/12/10 06:13:31;;;;;;;29.58;6.15;;;;;;;8.81;80.91;100302.63;5053730;28;20037;-81
2023/12/10 06:15:57;;;;;;;24.35;5.32;;;;;;;8.63;81.40;100279.28;5052497;28;20041;-81
2023/12/10 06:18:23;;;;;;;25.83;4.72;;;;;;;8.71;81.53;100290.53;5055385;28;20060;-81
2023/12/10 06:20:49;;;;;;;29.30;5.22;;;;;;;8.56;82.22;100280.31;5073683;28;20029;-81
2023/12/10 06:23:14;;;;;;;26.20;5.47;;;;;;;8.48;82.25;100277.88;5073315;28;20068;-82
2023/12/10 06:25:40;;;;;;;13.90;3.80;;;;;;;8.48;83.19;100269.06;5073711;28;20048;-81
2023/12/10 06:28:06;;;;;;;25.63;5.97;;;;;;;8.53;81.64;100310.28;5073380;28;20115;-81
2023/12/10 06:30:31;;;;;;;27.30;5.30;;;;;;;8.64;81.26;100323.25;5073433;28;20103;-81
2023/12/10 06:32:57;;;;;;;21.08;4.20;;;;;;;8.43;82.18;100335.13;5055292;28;20372;-81
2023/12/10 06:35:22;;;;;;;22.88;4.72;;;;;;;8.42;83.32;100317.56;5073314;28;20174;-82
2023/12/10 06:37:48;;;;;;;26.73;5.70;;;;;;;8.50;82.01;100351.69;5071726;28;20051;-81
2023/12/10 06:40:13;;;;;;;23.65;4.68;;;;;;;8.48;83.08;100345.56;5073376;28;20039;-82
2023/12/10 06:42:39;;;;;;;21.60;4.22;;;;;;;8.44;83.59;100357.97;5055231;28;20050;-82
2023/12/10 06:45:05;;;;;;;31.95;6.55;;;;;;;8.67;80.58;100364.53;5073250;28;20129;-81
2023/12/10 06:47:31;;;;;;;35.50;5.90;;;;;;;8.50;82.60;100396.56;5059510;28;20032;-82
2023/12/10 06:49:56;;;;;;;20.45;4.82;;;;;;;8.60;81.78;100383.16;5073150;28;20387;-81
2023/12/10 06:52:22;;;;;;;23.08;6.30;;;;;;;8.62;81.33;100380.47;5053994;28;20037;-81
2023/12/10 06:54:47;;;;;;;28.05;5.03;;;;;;;8.58;81.06;100384.97;5072932;28;20041;-80
2023/12/10 06:57:13;;;;;;;19.75;5.43;;;;;;;8.46;81.39;100382.56;5071476;28;20028;-82
2023/12/10 06:59:38;;;;;;;23.08;4.20;;;;;;;8.52;82.52;100387.72;5072896;28;20036;-81
2023/12/10 07:02:04;;;;;;;21.60;4.60;;;;;;;8.46;82.39;100413.38;5071472;28;20039;-81
2023/12/10 07:04:29;;;;;;;34.97;5.78;;;;;;;8.50;81.22;100412.41;5030351;28;20110;-81
2023/12/10 07:06:55;;;;;;;28.40;5.38;;;;;;;8.40;82.09;100380.91;5071440;28;20396;-81
2023/12/10 07:09:21;;;;;;;24.20;4.60;;;;;;;8.51;81.85;100412.38;5071191;28;20051;-81
2023/12/10 07:11:46;;;;;;;21.00;4.20;;;;;;;8.48;81.60;100411.56;5054595;28;20070;-81
2023/12/10 07:14:12;;;;;;;26.33;4.78;;;;;;;8.52;81.69;100415.88;5072423;28;20128;-80
2023/12/10 07:16:37;;;;;;;23.35;4.53;;;;;;;8.43;81.91;100400.22;5071065;28;20115;-81
2023/12/10 07:19:03;;;;;;;33.70;4.97;;;;;;;8.49;81.70;100434.41;5043142;28;20148;-81
2023/12/10 07:21:29;;;;;;;26.45;4.95;;;;;;;8.48;81.92;100430.03;5070311;28;20040;-82
2023/12/10 07:23:54;;;;;;;25.88;4.32;;;;;;;8.45;81.45;100417.75;5071161;28;20036;-81
2023/12/10 07:26:23;;;;;;;31.33;5.03;;;;;;;8.50;81.08;100417.66;5072375;28;20488;-81
2023/12/10 07:28:51;;;;;;;17.23;4.13;;;;;;;8.65;80.21;100417.34;5070428;28;20472;-79
2023/12/10 07:31:17;;;;;;;16.42;4.53;;;;;;;8.49;80.89;100437.06;5072261;28;20113;-80
2023/12/10 07:33:42;;;;;;;22.20;4.00;;;;;;;8.40;82.23;100441.59;5037593;28;20037;-80
2023/12/10 07:36:08;;;;;;;21.63;4.55;;;;;;;8.41;82.00;100466.25;5054089;28;20085;-81
2023/12/10 07:38:34;;;;;;;17.88;4.10;;;;;;;8.42;81.58;100462.69;5046171;28;20040;-80
2023/12/10 07:40:59;;;;;;;23.05;4.45;;;;;;;8.45;82.63;100472.31;5054229;28;20036;-82
2023/12/10 07:43:25;;;;;;;23.38;4.45;;;;;;;8.55;80.98;100468.59;5071893;28;20043;-81
2023/12/10 07:45:50;;;;;;;20.90;4.95;;;;;;;8.63;80.79;100501.00;5068918;28;20032;-81
2023/12/10 07:48:19;;;;;;;21.92;3.67;;;;;;;8.44;82.18;100497.84;5071789;28;20098;-82
2023/12/10 07:50:44;;;;;;;20.38;4.25;;;;;;;8.40;82.83;100504.91;5070043;28;20024;-81
2023/12/10 07:53:10;;;;;;;19.35;4.15;;;;;;;8.37;82.72;100512.00;5070429;28;20032;-80
2023/12/10 07:55:35;;;;;;;30.98;5.25;;;;;;;8.46;81.68;100509.25;5068518;28;20494;-81
2023/12/10 07:58:01;;;;;;;25.17;5.10;;;;;;;8.46;82.29;100511.88;5070266;28;20040;-81
2023/12/10 08:00:27;;;;;;;20.67;5.63;;;;;;;8.47;81.79;100518.88;5033628;28;20047;-81
2023/12/10 08:02:53;;;;;;;24.65;4.28;;;;;;;8.41;82.67;100511.09;5068853;28;20040;-81
2023/12/10 08:05:18;;;;;;;16.83;3.88;;;;;;;8.67;81.88;100551.97;5033830;28;20024;-81
2023/12/10 08:07:43;;;;;;;23.50;3.95;;;;;;;8.61;81.29;100529.19;5039496;28;20098;-80
2023/12/10 08:10:10;;;;;;;29.23;4.53;;;;;;;8.50;81.82;100534.66;5070291;28;20110;-81
2023/12/10 08:12:35;;;;;;;25.00;5.18;;;;;;;8.44;83.10;100537.41;5034268;28;20049;-81
2023/12/10 08:15:01;;;;;;;28.90;4.70;;;;;;;8.43;83.24;100540.06;5053688;28;20036;-81
2023/12/10 08:17:26;;;;;;;19.23;4.93;;;;;;;8.58;81.70;100540.69;5053421;28;20060;-81
2023/12/10 08:19:52;;;;;;;23.15;3.95;;;;;;;8.54;82.89;100562.75;5071316;28;20044;-81
2023/12/10 08:22:17;;;;;;;21.60;4.03;;;;;;;8.45;84.02;100567.31;5070313;28;20514;-81
2023/12/10 08:24:43;;;;;;;24.92;4.78;;;;;;;8.46;83.44;100563.78;5070030;28;20471;-81
2023/12/10 08:27:09;;;;;;;19.33;4.00;;;;;;;8.42;83.38;100562.97;5071252;28;20020;-80
2023/12/10 08:29:35;;;;;;;37.20;4.43;;;;;;;8.60;83.54;100580.22;5073464;28;20040;-80
2023/12/10 08:32:01;;;;;;;21.70;4.30;;;;;;;8.46;83.96;100579.63;5065542;28;20051;-81
2023/12/10 08:34:26;;;;;;;22.75;4.88;;;;;;;8.46;84.05;100574.34;5053440;28;20045;-81
2023/12/10 08:36:52;;;;;;;20.42;3.97;;;;;;;8.39;85.11;100587.63;5070284;28;20100;-81
2023/12/10 08:39:18;;;;;;;31.33;5.22;;;;;;;8.36;85.14;100590.28;5071514;28;20067;-81
2023/12/10 08:41:43;;;;;;;17.15;3.70;;;;;;;8.40;84.73;100599.06;5071452;28;20487;-81
2023/12/10 08:44:09;;;;;;;26.80;4.13;;;;;;;8.42;85.64;100596.41;5047131;28;20420;-81
2023/12/10 08:46:34;;;;;;;24.48;4.70;;;;;;;8.50;85.16;100581.28;5053030;28;20040;-81
2023/12/10 08:49:00;;;;;;;21.60;4.68;;;;;;;8.50;85.50;100591.84;5053213;28;20043;-82
2023/12/10 08:51:25;;;;;;;21.42;4.35;;;;;;;8.37;85.37;100593.78;5064687;28;20124;-81
2023/12/10 08:53:51;;;;;;;21.83;4.68;;;;;;;8.35;86.07;100607.00;5062969;28;20044;-81
2023/12/10 08:56:16;;;;;;;24.15;5.13;;;;;;;8.40;86.11;100606.97;5069837;28;20439;-81
2023/12/10 08:58:42;;;;;;;19.05;4.25;;;;;;;8.48;85.54;100602.44;5071082;28;20095;-81
2023/12/10 09:01:07;;;;;;;12.95;3.72;;;;;;;8.44;86.67;100598.09;5052552;28;20040;-81
2023/12/10 09:03:33;;;;;;;27.55;5.28;;;;;;;8.37;87.02;100605.22;5069510;28;20387;-81
2023/12/10 09:06:00;;;;;;;22.40;4.38;;;;;;;8.44;86.86;100613.09;5068742;28;20555;-81
2023/12/10 09:08:26;;;;;;;21.35;5.35;;;;;;;8.40;87.64;100620.16;5050329;28;20043;-82
2023/12/10 09:10:53;;;;;;;29.05;4.63;;;;;;;8.35;88.08;100620.19;5065894;28;20365;-81
2023/12/10 09:13:18;;;;;;;25.70;4.95;;;;;;;8.32;88.05;100614.13;5052554;28;20124;-82
2023/12/10 09:15:44;;;;;;;22.52;4.45;;;;;;;8.31;88.56;100617.66;5067621;28;20131;-81
2023/12/10 09:18:10;;;;;;;29.30;6.03;;;;;;;8.28;88.72;100623.81;5069759;28;20037;-82
2023/12/10 09:20:36;;;;;;;13.82;3.63;;;;;;;8.55;87.68;100626.94;5069811;28;20144;-82
2023/12/10 09:23:02;;;;;;;23.63;4.38;;;;;;;8.35;88.78;100628.09;5054144;28;20040;-82
2023/12/10 09:25:27;;;;;;;28.23;4.47;;;;;;;8.34;88.21;100618.47;5070368;28;20386;-82
2023/12/10 09:27:53;;;;;;;29.10;4.40;;;;;;;8.28;89.41;100623.81;5061458;28;20033;-81
2023/12/10 09:30:18;;;;;;;24.35;4.03;;;;;;;8.26;90.42;100628.28;5070022;28;20055;-81
2023/12/10 09:32:44;;;;;;;27.83;4.88;;;;;;;8.30;89.89;100623.81;5068574;28;20064;-82
2023/12/10 09:35:10;;;;;;;23.70;5.18;;;;;;;8.27;90.47;100614.19;5035900;28;20484;-82
2023/12/10 09:37:37;;;;;;;32.67;5.10;;;;;;;8.28;90.61;100631.75;5070262;28;20123;-82
2023/12/10 09:40:04;;;;;;;30.65;5.28;;;;;;;8.24;91.20;100635.34;5053543;28;20040;-82
2023/12/10 09:42:29;;;;;;;28.48;4.50;;;;;;;8.23;91.46;100633.59;5071836;28;20095;-81
2023/12/10 09:44:55;;;;;;;22.27;4.00;;;;;;;8.28;92.29;100634.38;5073639;28;20531;-82
2023/12/10 09:47:23;;;;;;;23.40;5.20;;;;;;;8.28;92.30;100633.50;5072751;28;20024;-82
2023/12/10 09:49:53;;;;;;;27.20;4.43;;;;;;;8.46;92.30;100643.81;5047782;28;20195;-82
2023/12/10 09:52:19;;;;;;;35.00;6.40;;;;;;;8.45;92.01;100626.22;5069402;28;20044;-82
2023/12/10 09:54:44;;;;;;;25.40;4.95;;;;;;;8.30;93.68;100610.63;5056053;28;20032;-81
2023/12/10 09:57:11;;;;;;;21.10;5.07;;;;;;;8.47;93.13;100627.09;5056607;28;20083;-81
2023/12/10 09:59:37;;;;;;;24.30;4.45;;;;;;;8.39;94.54;100621.94;5074261;28;20032;-82
2023/12/10 10:02:06;;;;;;;21.45;4.20;;;;;;;8.48;94.39;100613.00;5073303;28;20051;-82
2023/12/10 10:04:32;;;;;;;28.85;5.13;;;;;;;8.47;93.92;100627.09;5031365;28;20028;-82
2023/12/10 10:06:58;;;;;;;19.83;4.10;;;;;;;8.55;93.22;100619.03;5058640;28;20041;-82
2023/12/10 10:09:23;;;;;;;23.60;5.47;;;;;;;8.61;93.16;100637.41;5054822;28;20053;-82
2023/12/10 10:11:50;;;;;;;17.48;4.28;;;;;;;8.64;93.33;100632.09;5057021;28;20044;-81
2023/12/10 10:14:19;;;;;;;20.67;4.28;;;;;;;8.53;95.21;100640.19;5055736;28;20151;-82
2023/12/10 10:16:48;;;;;;;25.10;4.22;;;;;;;8.65;95.17;100635.59;5067108;28;20036;-81
2023/12/10 10:19:14;;;;;;;30.90;4.55;;;;;;;8.67;94.59;100623.22;5055447;28;20572;-81
2023/12/10 10:21:42;;;;;;;30.15;4.72;;;;;;;8.67;94.42;100624.09;5073106;28;20124;-80
2023/12/10 10:24:08;;;;;;;27.38;4.95;;;;;;;8.69;94.37;100626.72;5071968;28;20125;-81
2023/12/10 10:26:34;;;;;;;19.85;4.55;;;;;;;8.69;94.72;100618.81;5073082;28;20048;-81
2023/12/10 10:29:04;;;;;;;24.63;5.32;;;;;;;8.86;94.36;100622.00;5071599;28;20037;-81
2023/12/10 10:31:33;;;;;;;25.50;4.68;;;;;;;8.86;93.81;100614.09;5039110;28;20036;-81
2023/12/10 10:34:04;;;;;;;19.70;4.65;;;;;;;8.86;93.12;100615.88;5065763;28;20027;-81
2023/12/10 10:36:31;;;;;;;18.92;4.10;;;;;;;8.85;93.95;100624.66;5066964;28;20085;-81
2023/12/10 10:38:57;;;;;;;21.92;4.10;;;;;;;8.77;93.09;100620.41;5072800;28;20037;-80
2023/12/10 10:41:23;;;;;;;32.67;4.88;;;;;;;8.91;92.38;100628.06;5045395;28;20051;-80
2023/12/10 10:43:49;;;;;;;18.25;3.58;;;;;;;9.00;91.34;100630.56;5066200;28;20107;-80
2023/12/10 10:46:19;;;;;;;24.27;4.10;;;;;;;8.98;91.56;100621.78;5035878;28;20401;-80
2023/12/10 10:48:51;;;;;;;26.20;4.80;;;;;;;8.99;90.77;100628.78;5062619;28;20071;-80
2023/12/10 10:51:22;;;;;;;17.25;4.38;;;;;;;9.09;89.74;100618.94;5058845;28;20293;-81
2023/12/10 10:53:48;;;;;;;22.58;3.80;;;;;;;9.20;89.11;100621.38;5062868;28;20365;-80
2023/12/10 10:56:16;;;;;;;19.45;4.25;;;;;;;9.22;88.30;100628.38;5034372;28;20467;-80
2023/12/10 10:58:41;;;;;;;20.63;3.90;;;;;;;9.21;88.70;100631.03;5058378;28;20060;-80
2023/12/10 11:01:35;;;;;;;19.95;3.78;;;;;;;9.26;88.85;100627.38;5054826;28;20514;-80
2023/12/10 11:04:01;;;;;;;18.67;3.83;;;;;;;9.41;87.91;100622.72;5047872;28;20039;-80
2023/12/10 11:06:26;;;;;;;19.88;3.55;;;;;;;9.42;86.95;100609.47;5044484;28;20037;-81
2023/12/10 11:08:59;;;;;;;19.48;3.72;;;;;;;9.43;87.53;100616.50;5065650;28;20039;-80
2023/12/10 11:11:28;;;;;;;23.40;4.32;;;;;;;9.48;86.38;100619.03;5056114;28;20043;-80
2023/12/10 11:13:54;;;;;;;23.98;4.05;;;;;;;9.46;86.45;100611.13;5065830;28;20044;-80
2023/12/10 11:16:21;;;;;;;26.65;3.58;;;;;;;9.43;86.87;100616.50;5065181;28;20146;-80
2023/12/10 11:18:55;;;;;;;26.20;4.53;;;;;;;9.52;85.95;100609.25;5035975;28;20045;-80
2023/12/10 11:21:21;;;;;;;17.95;4.03;;;;;;;9.42;86.82;100593.63;5065563;28;20047;-80